Time;durP1;ratioP1;P1;durP2;ratioP2;P2;SDS_P1;SDS_P2;PMS_P1;PMS_P2;Temp;Humidity;BMP_temperature;BMP_pressure;BME280_temperature;BME280_humidity;BME280_pressure;Samples;Min_cycle;Max_cycle;Signal;HPM_P1;HPM_P2
2023/03/11 00:01:07;;;;;;;7.45;2.55;;;;;;;6.48;59.70;100337.03;4921440;29;20063;-68
2023/03/11 00:03:34;;;;;;;5.32;1.90;;;;;;;6.54;59.44;100344.03;4922042;29;20059;-69
2023/03/11 00:06:02;;;;;;;5.90;1.88;;;;;;;6.52;59.54;100359.94;4904386;29;20499;-68
2023/03/11 00:08:31;;;;;;;7.93;2.20;;;;;;;6.37;60.06;100367.53;4906480;29;20052;-68
2023/03/11 00:10:59;;;;;;;5.53;2.25;;;;;;;6.56;59.43;100371.94;4902443;29;20054;-68
2023/03/11 00:13:27;;;;;;;8.25;2.10;;;;;;;6.32;59.54;100375.81;4905720;29;20063;-68
2023/03/11 00:15:55;;;;;;;4.53;1.83;;;;;;;6.23;60.02;100383.88;4924631;29;20069;-68
2023/03/11 00:18:25;;;;;;;7.45;2.33;;;;;;;6.13;60.92;100378.53;4937486;29;20052;-68
2023/03/11 00:20:54;;;;;;;7.55;2.25;;;;;;;6.29;61.06;100377.25;4921107;29;20064;-68
2023/03/11 00:23:22;;;;;;;4.82;1.92;;;;;;;6.50;60.34;100370.34;4921507;29;20056;-68
2023/03/11 00:25:50;;;;;;;7.85;2.50;;;;;;;6.53;60.60;100356.09;4920896;29;20056;-69
2023/03/11 00:28:17;;;;;;;7.32;2.63;;;;;;;6.60;60.30;100358.47;4922585;29;20051;-69
2023/03/11 00:30:45;;;;;;;5.68;2.40;;;;;;;6.55;60.38;100344.88;4905263;29;20060;-69
2023/03/11 00:33:14;;;;;;;7.07;2.13;;;;;;;6.71;59.98;100343.53;4934823;29;20059;-69
2023/03/11 00:35:42;;;;;;;7.55;2.53;;;;;;;6.61;60.63;100357.34;4937754;29;20054;-69
2023/03/11 00:38:14;;;;;;;9.05;3.13;;;;;;;6.57;61.31;100361.81;4937064;29;20427;-67
2023/03/11 00:40:42;;;;;;;10.73;4.03;;;;;;;6.81;61.71;100352.41;4920901;29;20063;-69
2023/03/11 00:43:10;;;;;;;8.65;3.30;;;;;;;6.96;61.23;100342.34;4924764;29;20060;-68
2023/03/11 00:45:37;;;;;;;7.53;3.63;;;;;;;6.88;61.47;100352.03;4907977;29;20842;-69
2023/03/11 00:48:05;;;;;;;7.20;3.67;;;;;;;6.60;62.39;100347.53;4921974;29;20055;-68
2023/03/11 00:50:35;;;;;;;10.17;4.27;;;;;;;6.42;62.53;100340.94;4896878;29;20051;-69
2023/03/11 00:53:03;;;;;;;11.90;5.13;;;;;;;6.49;62.38;100343.31;4920173;29;20055;-67
2023/03/11 00:55:32;;;;;;;12.95;6.18;;;;;;;6.52;62.11;100343.53;4904047;29;20063;-68
2023/03/11 00:58:03;;;;;;;11.77;6.78;;;;;;;6.53;61.88;100334.22;4920013;29;20064;-68
2023/03/11 01:00:38;;;;;;;11.80;7.15;;;;;;;6.50;62.56;100329.31;4904318;29;20060;-69
2023/03/11 01:03:06;;;;;;;12.88;8.38;;;;;;;6.60;62.86;100344.78;4940726;29;20051;-69
2023/03/11 01:05:34;;;;;;;14.15;7.82;;;;;;;6.61;62.30;100360.09;4936646;29;20060;-67
2023/03/11 01:08:02;;;;;;;12.75;6.70;;;;;;;6.66;62.24;100363.56;4921259;29;20059;-69
2023/03/11 01:10:32;;;;;;;10.73;5.30;;;;;;;6.60;62.07;100386.66;4921041;29;20059;-68
2023/03/11 01:13:00;;;;;;;10.37;4.63;;;;;;;6.52;62.37;100381.03;4923392;29;20511;-68
2023/03/11 01:15:33;;;;;;;12.30;4.68;;;;;;;6.60;61.61;100367.50;4938342;29;20055;-68
2023/03/11 01:18:01;;;;;;;9.88;4.10;;;;;;;6.33;62.63;100355.59;4919782;29;20393;-67
2023/03/11 01:20:31;;;;;;;9.38;3.97;;;;;;;6.51;61.47;100352.84;4919308;29;20064;-68
2023/03/11 01:22:58;;;;;;;10.63;3.30;;;;;;;6.39;61.31;100349.75;4921561;29;20067;-68
2023/03/11 01:25:27;;;;;;;9.52;2.95;;;;;;;6.53;61.45;100350.63;4920366;29;20060;-67
2023/03/11 01:27:57;;;;;;;9.02;2.70;;;;;;;6.48;60.60;100358.94;4921314;29;20056;-68
2023/03/11 01:30:26;;;;;;;7.28;2.97;;;;;;;6.49;60.66;100368.75;4920669;29;20063;-68
2023/03/11 01:32:55;;;;;;;8.00;3.95;;;;;;;6.25;61.87;100351.56;4913708;29;20056;-68
2023/03/11 01:35:24;;;;;;;8.23;3.08;;;;;;;6.29;61.63;100349.88;4904107;29;20064;-68
2023/03/11 01:37:53;;;;;;;9.00;3.40;;;;;;;6.29;61.47;100360.84;4903903;29;20056;-67
2023/03/11 01:40:25;;;;;;;7.22;3.40;;;;;;;6.30;62.35;100376.13;4920623;29;20063;-69
2023/03/11 01:42:52;;;;;;;9.50;3.78;;;;;;;6.37;62.20;100373.00;4903754;29;20056;-68
2023/03/11 01:45:40;;;;;;;8.85;3.63;;;;;;;6.34;62.54;100365.41;4921466;29;20048;-67
2023/03/11 01:48:10;;;;;;;7.72;3.13;;;;;;;6.21;63.61;100372.41;4932301;29;20065;-68
2023/03/11 01:50:42;;;;;;;9.43;2.50;;;;;;;6.18;62.79;100366.69;4906619;29;20063;-66
2023/03/11 01:53:10;;;;;;;6.90;2.38;;;;;;;6.04;62.05;100347.47;4907335;29;20052;-67
2023/03/11 01:55:39;;;;;;;7.03;2.50;;;;;;;6.08;62.16;100358.63;4903097;29;20063;-68
2023/03/11 01:58:09;;;;;;;5.05;2.00;;;;;;;6.12;62.51;100362.41;4918160;29;20295;-67
2023/03/11 02:00:36;;;;;;;;;;;;;;;6.15;62.75;100376.31;4918908;29;20048;-68
2023/03/11 02:03:34;;;;;;;4.55;2.00;;;;;;;6.14;62.59;100379.31;4938167;29;19930;-69
2023/03/11 02:06:04;;;;;;;5.18;1.83;;;;;;;6.24;61.43;100374.53;4915019;29;20060;-67
2023/03/11 02:08:35;;;;;;;4.53;1.90;;;;;;;6.21;60.89;100374.31;4921107;29;20067;-68
2023/03/11 02:11:07;;;;;;;7.15;1.80;;;;;;;6.33;61.05;100381.00;4917617;29;20044;-68
2023/03/11 02:13:35;;;;;;;5.78;2.00;;;;;;;6.42;60.70;100384.72;4903755;29;20075;-68
2023/03/11 02:16:04;;;;;;;6.68;1.67;;;;;;;6.30;61.44;100386.25;4901816;29;20052;-67
2023/03/11 02:18:31;;;;;;;8.45;1.90;;;;;;;6.22;60.89;100386.91;4920709;29;20523;-67
2023/03/11 02:21:08;;;;;;;7.88;2.00;;;;;;;6.43;60.36;100389.06;4888328;29;20060;-67
2023/03/11 02:23:51;;;;;;;6.88;1.80;;;;;;;6.21;61.01;100385.25;4919528;29;20052;-67
2023/03/11 02:26:23;;;;;;;4.50;1.52;;;;;;;6.32;60.95;100376.66;4907302;29;20059;-63
2023/03/11 02:28:52;;;;;;;5.45;1.20;;;;;;;6.23;60.43;100386.59;4924455;29;20067;-67
2023/03/11 02:31:21;;;;;;;4.05;1.38;;;;;;;6.23;61.05;100383.88;4912721;29;20492;-66
2023/03/11 02:33:50;;;;;;;4.70;1.45;;;;;;;6.15;61.20;100384.53;4917210;29;20056;-61
2023/03/11 02:36:33;;;;;;;5.53;1.73;;;;;;;6.51;61.39;100369.28;4921058;29;20047;-62
2023/03/11 02:39:02;;;;;;;6.18;1.70;;;;;;;6.29;62.23;100379.16;4922715;29;20499;-67
2023/03/11 02:41:31;;;;;;;6.78;1.90;;;;;;;6.43;62.38;100363.66;4936658;29;20051;-67
2023/03/11 02:43:59;;;;;;;8.00;2.15;;;;;;;6.36;62.46;100353.03;4918283;29;20415;-67
2023/03/11 02:46:27;;;;;;;7.90;2.05;;;;;;;6.19;63.46;100339.06;4927693;29;20051;-66
2023/03/11 02:48:58;;;;;;;6.43;1.90;;;;;;;6.07;64.32;100333.22;4921545;29;20516;-67
2023/03/11 02:51:26;;;;;;;9.13;2.07;;;;;;;6.20;64.29;100334.41;4935795;29;20062;-68
2023/03/11 02:53:57;;;;;;;5.75;1.95;;;;;;;6.01;64.32;100336.31;4929399;29;20052;-68
2023/03/11 02:56:25;;;;;;;5.60;1.92;;;;;;;5.90;65.02;100340.25;4917213;29;20055;-62
2023/03/11 02:58:52;;;;;;;8.65;2.40;;;;;;;5.84;65.18;100355.91;4939113;29;20499;-62
2023/03/11 03:01:20;;;;;;;5.85;2.00;;;;;;;5.79;64.95;100357.88;4917564;29;20075;-62
2023/03/11 03:03:48;;;;;;;8.93;2.15;;;;;;;5.82;65.04;100368.22;4919719;29;20048;-63
2023/03/11 03:06:16;;;;;;;7.03;2.20;;;;;;;5.80;65.25;100371.25;4901274;29;20052;-61
2023/03/11 03:08:44;;;;;;;7.70;2.08;;;;;;;5.81;65.77;100358.38;4903079;29;20056;-62
2023/03/11 03:11:11;;;;;;;7.07;2.05;;;;;;;5.74;66.33;100361.47;4913987;29;20071;-66
2023/03/11 03:13:39;;;;;;;6.88;2.40;;;;;;;5.82;65.96;100355.38;4907885;29;20059;-67
2023/03/11 03:16:07;;;;;;;9.98;2.30;;;;;;;5.73;65.25;100347.00;4901088;29;20060;-67
2023/03/11 03:18:35;;;;;;;8.75;2.55;;;;;;;5.83;65.42;100354.28;4921189;29;20043;-62
2023/03/11 03:21:02;;;;;;;6.32;2.00;;;;;;;5.74;66.33;100353.25;4883219;29;20057;-62
2023/03/11 03:23:34;;;;;;;8.43;2.40;;;;;;;5.99;66.36;100352.19;4886359;29;20045;-62
2023/03/11 03:26:01;;;;;;;6.70;2.50;;;;;;;5.91;66.95;100339.97;4874391;29;20404;-67
2023/03/11 03:28:33;;;;;;;7.53;2.28;;;;;;;5.87;67.15;100333.47;4905601;29;20049;-67
2023/03/11 03:31:08;;;;;;;5.35;2.08;;;;;;;5.84;66.56;100322.31;4888794;29;20052;-67
2023/03/11 03:33:37;;;;;;;6.60;2.30;;;;;;;5.68;67.81;100321.66;4902061;29;20052;-68
2023/03/11 03:36:11;;;;;;;11.02;2.85;;;;;;;5.48;67.99;100321.84;4891011;29;20053;-68
2023/03/11 03:38:55;;;;;;;5.85;2.50;;;;;;;5.59;68.64;100326.94;4884760;29;20053;-67
2023/03/11 03:41:25;;;;;;;6.20;2.45;;;;;;;5.72;68.46;100319.94;4901958;29;20421;-67
2023/03/11 03:43:53;;;;;;;6.25;2.20;;;;;;;5.78;68.05;100321.53;4900038;29;20053;-68
2023/03/11 03:46:21;;;;;;;8.68;2.35;;;;;;;5.85;68.34;100327.47;4888356;29;20072;-61
2023/03/11 03:48:52;;;;;;;9.48;2.80;;;;;;;5.91;68.32;100339.97;4869585;29;20064;-62
2023/03/11 03:51:20;;;;;;;5.88;2.83;;;;;;;5.85;68.43;100340.31;4898323;29;20531;-66
2023/03/11 03:54:02;;;;;;;6.32;2.63;;;;;;;5.87;68.48;100340.84;4875769;29;20048;-68
2023/03/11 03:56:29;;;;;;;;;;;;;;;5.79;68.54;100345.00;4874410;29;20052;-62
2023/03/11 03:58:57;;;;;;;13.68;2.85;;;;;;;5.76;68.70;100356.50;4885451;29;19931;-62
2023/03/11 04:01:29;;;;;;;9.85;2.63;;;;;;;5.70;69.38;100360.44;4881917;29;20057;-62
2023/03/11 04:03:57;;;;;;;8.95;3.15;;;;;;;5.70;69.80;100352.22;4884053;29;20092;-61
2023/03/11 04:06:26;;;;;;;11.60;2.70;;;;;;;5.81;69.98;100358.38;4897765;29;20053;-61
2023/03/11 04:09:01;;;;;;;4.53;2.47;;;;;;;5.89;69.55;100363.25;4899889;29;20049;-67
2023/03/11 04:11:32;;;;;;;6.45;2.63;;;;;;;5.93;69.89;100367.03;4867806;29;20059;-68
2023/03/11 04:14:01;;;;;;;8.40;3.50;;;;;;;6.19;68.53;100360.94;4883730;29;20056;-62
2023/03/11 04:16:30;;;;;;;9.70;3.20;;;;;;;5.97;68.52;100349.75;4892547;29;20053;-63
2023/03/11 04:19:06;;;;;;;6.38;2.70;;;;;;;5.99;68.71;100342.06;4904267;29;20056;-61
2023/03/11 04:21:34;;;;;;;11.15;3.35;;;;;;;5.96;69.09;100356.34;4919388;29;20048;-61
2023/03/11 04:24:02;;;;;;;7.47;2.40;;;;;;;5.95;68.51;100341.00;4937383;29;20059;-67
2023/03/11 04:26:34;;;;;;;7.15;2.97;;;;;;;5.97;68.29;100338.81;4921125;29;20163;-62
2023/03/11 04:29:02;;;;;;;10.07;3.17;;;;;;;5.95;69.27;100337.47;4939745;29;20056;-62
2023/03/11 04:31:35;;;;;;;7.10;3.00;;;;;;;5.82;69.49;100346.34;4936460;29;20060;-61
2023/03/11 04:34:05;;;;;;;7.80;3.58;;;;;;;5.86;70.59;100355.63;4893945;29;20052;-62
2023/03/11 04:36:33;;;;;;;8.10;3.72;;;;;;;5.89;70.00;100363.25;4922571;29;20052;-62
2023/03/11 04:39:01;;;;;;;12.02;4.03;;;;;;;5.84;70.60;100374.25;4939881;29;20052;-62
2023/03/11 04:41:32;;;;;;;10.70;4.10;;;;;;;5.59;71.37;100361.63;4920562;29;20059;-62
2023/03/11 04:44:00;;;;;;;11.90;4.07;;;;;;;5.76;71.22;100367.44;4921205;29;20048;-62
2023/03/11 04:46:28;;;;;;;9.80;4.53;;;;;;;5.62;71.96;100375.53;4903665;29;20060;-62
2023/03/11 04:48:56;;;;;;;11.82;4.43;;;;;;;5.56;71.67;100384.88;4916218;29;20052;-62
2023/03/11 04:51:24;;;;;;;10.10;4.30;;;;;;;5.64;71.85;100392.44;4911373;29;20052;-63
2023/03/11 04:53:52;;;;;;;11.27;4.90;;;;;;;5.64;71.24;100386.97;4921888;29;20400;-67
2023/03/11 04:56:19;;;;;;;9.70;4.30;;;;;;;5.73;71.74;100382.53;4920719;29;20063;-67
2023/03/11 04:58:48;;;;;;;9.80;4.82;;;;;;;5.65;71.34;100394.06;4920468;29;20060;-69
2023/03/11 05:01:16;;;;;;;13.13;5.53;;;;;;;5.59;71.40;100392.50;4918587;29;20063;-67
2023/03/11 05:03:43;;;;;;;14.52;5.32;;;;;;;5.59;71.71;100392.50;4920994;29;20056;-66
2023/03/11 05:06:11;;;;;;;10.25;5.45;;;;;;;5.41;72.19;100386.94;4914241;29;20063;-66
2023/03/11 05:08:39;;;;;;;10.07;5.70;;;;;;;5.28;73.46;100377.47;4921827;29;20082;-67
2023/03/11 05:11:07;;;;;;;11.52;6.38;;;;;;;5.28;73.42;100368.50;4907007;29;20058;-68
2023/03/11 05:13:35;;;;;;;14.90;5.93;;;;;;;5.39;74.44;100381.75;4903187;29;20059;-68
2023/03/11 05:16:03;;;;;;;11.50;6.03;;;;;;;5.42;73.82;100386.63;4903605;29;20060;-68
2023/03/11 05:18:32;;;;;;;15.43;6.13;;;;;;;5.54;73.48;100397.19;4905039;29;20056;-62
2023/03/11 05:21:00;;;;;;;9.88;6.05;;;;;;;5.69;73.51;100410.69;4910776;29;20068;-62
2023/03/11 05:23:30;;;;;;;11.30;5.78;;;;;;;5.55;73.21;100401.53;4902910;29;20048;-67
2023/03/11 05:26:00;;;;;;;9.68;5.70;;;;;;;5.60;73.11;100398.75;4924703;29;20404;-61
2023/03/11 05:28:29;;;;;;;9.73;5.68;;;;;;;5.40;73.45;100393.50;4923179;29;20055;-66
2023/03/11 05:30:57;;;;;;;11.10;6.00;;;;;;;5.48;73.23;100393.69;4934881;29;20056;-67
2023/03/11 05:33:24;;;;;;;10.88;5.93;;;;;;;5.61;73.36;100397.69;4918726;29;20048;-67
2023/03/11 05:35:53;;;;;;;13.30;6.80;;;;;;;5.34;74.79;100402.84;4899672;29;20412;-67
2023/03/11 05:38:20;;;;;;;11.25;6.13;;;;;;;5.41;74.66;100400.59;4920299;29;20055;-68
2023/03/11 05:40:48;;;;;;;15.10;6.93;;;;;;;5.48;74.63;100401.88;4904715;29;20071;-67
2023/03/11 05:43:16;;;;;;;10.18;6.13;;;;;;;5.37;74.54;100405.81;4918264;29;20098;-67
2023/03/11 05:45:50;;;;;;;9.38;6.00;;;;;;;5.31;74.91;100411.59;4923857;29;20511;-67
2023/03/11 05:48:17;;;;;;;11.80;6.13;;;;;;;5.17;75.64;100422.38;4919733;29;20056;-62
2023/03/11 05:50:45;;;;;;;12.52;6.30;;;;;;;5.32;75.64;100421.41;4918600;29;20739;-63
2023/03/11 05:53:13;;;;;;;13.68;5.95;;;;;;;5.33;74.94;100418.41;4910732;29;20047;-67
2023/03/11 05:55:42;;;;;;;14.02;5.95;;;;;;;5.58;74.12;100426.38;4918496;29;20508;-67
2023/03/11 05:58:09;;;;;;;12.05;5.85;;;;;;;5.58;74.05;100425.53;4920101;29;20052;-67
2023/03/11 06:00:37;;;;;;;16.88;6.35;;;;;;;5.62;73.44;100411.03;4919216;29;21263;-67
2023/03/11 06:03:05;;;;;;;12.52;5.90;;;;;;;5.78;73.32;100403.50;4919099;29;20048;-67
2023/03/11 06:05:32;;;;;;;11.27;6.00;;;;;;;5.70;73.16;100404.94;4902701;29;20064;-62
2023/03/11 06:08:00;;;;;;;12.00;6.75;;;;;;;5.59;73.23;100417.09;4918569;29;20814;-63
2023/03/11 06:10:28;;;;;;;14.32;6.78;;;;;;;5.46;73.83;100419.66;4903204;29;20505;-62
2023/03/11 06:12:55;;;;;;;13.25;7.22;;;;;;;5.43;74.49;100420.22;4918619;29;20051;-63
2023/03/11 06:15:27;;;;;;;10.35;5.95;;;;;;;5.28;75.10;100428.56;4918851;29;20138;-63
2023/03/11 06:17:54;;;;;;;12.13;6.07;;;;;;;5.38;75.05;100426.56;4914308;29;20575;-63
2023/03/11 06:20:22;;;;;;;10.90;5.95;;;;;;;5.48;74.98;100426.47;4902743;29;20068;-62
2023/03/11 06:22:50;;;;;;;9.32;5.60;;;;;;;5.28;74.55;100418.44;4902338;29;20056;-62
2023/03/11 06:25:21;;;;;;;13.80;6.00;;;;;;;5.24;74.78;100432.97;4919831;29;20040;-62
2023/03/11 06:27:50;;;;;;;16.27;5.72;;;;;;;5.52;74.57;100432.19;4920757;29;20061;-63
2023/03/11 06:30:19;;;;;;;13.85;6.25;;;;;;;5.48;74.50;100431.94;4903602;29;20048;-63
2023/03/11 06:32:55;;;;;;;13.65;5.88;;;;;;;5.41;74.28;100430.63;4918208;29;20059;-61
2023/03/11 06:35:22;;;;;;;15.23;6.05;;;;;;;5.44;74.10;100436.31;4903456;29;20525;-62
2023/03/11 06:37:50;;;;;;;10.30;6.15;;;;;;;5.43;74.37;100437.44;4902320;29;20059;-62
2023/03/11 06:40:17;;;;;;;15.18;6.57;;;;;;;5.34;74.38;100439.16;4903082;29;20064;-63
2023/03/11 06:42:46;;;;;;;13.93;5.68;;;;;;;5.29;75.39;100449.31;4899423;29;20049;-63
2023/03/11 06:45:15;;;;;;;14.15;5.90;;;;;;;5.42;74.49;100435.00;4902838;29;20052;-68
2023/03/11 06:47:48;;;;;;;14.52;5.95;;;;;;;5.48;74.37;100442.03;4915007;29;20059;-68
2023/03/11 06:50:16;;;;;;;13.50;6.55;;;;;;;5.59;74.11;100432.66;4917561;29;20400;-67
2023/03/11 06:52:44;;;;;;;11.43;6.35;;;;;;;5.44;73.76;100419.94;4932894;29;20063;-67
2023/03/11 06:55:11;;;;;;;11.75;6.75;;;;;;;5.48;74.52;100436.56;4903315;29;20125;-67
2023/03/11 06:57:39;;;;;;;15.38;6.72;;;;;;;5.51;74.20;100436.81;4923316;29;20067;-68
2023/03/11 07:00:11;;;;;;;;;;;;;;;5.58;74.42;100437.28;4919272;29;20056;-70
2023/03/11 07:02:41;;;;;;;13.27;6.28;;;;;;;5.63;74.26;100433.72;4931747;29;19927;-69
2023/03/11 07:05:11;;;;;;;14.52;5.82;;;;;;;5.49;74.67;100447.22;4902922;29;20052;-67
2023/03/11 07:07:39;;;;;;;9.90;5.97;;;;;;;5.48;74.49;100458.44;4916192;29;20499;-69
2023/03/11 07:10:06;;;;;;;13.80;6.03;;;;;;;5.74;73.67;100468.84;4905005;29;20051;-68
2023/03/11 07:12:35;;;;;;;12.00;6.28;;;;;;;5.78;72.86;100465.53;4918253;29;20075;-69
2023/03/11 07:15:02;;;;;;;12.43;6.60;;;;;;;5.57;74.07;100463.00;4901087;29;20155;-68
2023/03/11 07:17:31;;;;;;;14.85;8.05;;;;;;;5.63;74.02;100474.72;4904014;29;20516;-68
2023/03/11 07:19:59;;;;;;;13.55;6.43;;;;;;;5.62;74.00;100478.53;4919248;29;20071;-69
2023/03/11 07:22:26;;;;;;;15.65;6.03;;;;;;;5.86;73.17;100471.22;4898009;29;20071;-63
2023/03/11 07:24:54;;;;;;;10.55;5.65;;;;;;;6.18;71.59;100489.75;4911065;29;20060;-65
2023/03/11 07:27:21;;;;;;;12.23;6.07;;;;;;;5.97;71.65;100489.16;4912484;29;20051;-64
2023/03/11 07:29:49;;;;;;;11.18;5.88;;;;;;;5.81;72.05;100484.91;4913984;29;20052;-63
2023/03/11 07:32:16;;;;;;;14.68;6.13;;;;;;;5.96;72.06;100498.47;4913260;29;20636;-63
2023/03/11 07:34:44;;;;;;;14.40;6.40;;;;;;;6.13;72.04;100496.09;4901396;29;20411;-64
2023/03/11 07:37:12;;;;;;;13.45;6.38;;;;;;;6.08;70.83;100489.88;4932672;29;20067;-64
2023/03/11 07:39:40;;;;;;;13.23;6.43;;;;;;;5.76;72.10;100504.09;4900869;29;20052;-64
2023/03/11 07:42:07;;;;;;;10.88;6.32;;;;;;;5.87;73.04;100507.56;4916655;29;20048;-63
2023/03/11 07:44:35;;;;;;;12.82;5.85;;;;;;;6.08;73.09;100515.31;4913266;29;20048;-63
2023/03/11 07:47:04;;;;;;;13.48;6.15;;;;;;;6.11;72.10;100525.66;4917047;29;20055;-64
2023/03/11 07:49:32;;;;;;;11.45;6.72;;;;;;;6.21;72.37;100519.25;4914836;29;20060;-63
2023/03/11 07:52:00;;;;;;;9.40;5.75;;;;;;;6.31;71.78;100508.22;4915688;29;20052;-63
2023/03/11 07:54:27;;;;;;;10.65;5.55;;;;;;;6.40;71.55;100501.81;4906026;29;20044;-64
2023/03/11 07:56:55;;;;;;;13.55;5.30;;;;;;;6.21;71.31;100505.56;4916422;29;20064;-63
2023/03/11 07:59:23;;;;;;;13.65;5.65;;;;;;;6.10;71.67;100493.94;4917685;29;20056;-63
2023/03/11 08:01:50;;;;;;;10.85;5.43;;;;;;;6.32;71.84;100498.91;4915672;29;20507;-64
2023/03/11 08:04:17;;;;;;;11.10;5.38;;;;;;;6.42;71.53;100502.34;4914968;29;20048;-65
2023/03/11 08:06:46;;;;;;;14.43;5.43;;;;;;;6.30;71.44;100518.34;4918887;29;20124;-63
2023/03/11 08:09:14;;;;;;;12.00;5.57;;;;;;;6.42;71.45;100523.41;4923059;29;20047;-63
2023/03/11 08:11:41;;;;;;;14.70;5.55;;;;;;;6.39;71.13;100522.06;4907603;29;20507;-64
2023/03/11 08:14:09;;;;;;;12.68;5.90;;;;;;;6.50;71.27;100517.31;4920466;29;20052;-63
2023/03/11 08:16:39;;;;;;;15.52;6.82;;;;;;;6.53;70.56;100524.94;4919238;29;20048;-63
2023/03/11 08:19:06;;;;;;;12.88;5.70;;;;;;;6.37;70.62;100520.72;4921889;29;20059;-62
2023/03/11 08:21:34;;;;;;;10.48;5.13;;;;;;;6.46;70.60;100532.66;4919246;29;20056;-64
2023/03/11 08:24:01;;;;;;;10.07;4.30;;;;;;;6.32;70.07;100535.28;4919299;29;20053;-63
2023/03/11 08:26:32;;;;;;;10.38;4.90;;;;;;;6.28;69.92;100525.19;4901857;29;20052;-64
2023/03/11 08:28:59;;;;;;;11.60;4.22;;;;;;;6.58;69.51;100522.94;4919299;29;20071;-63
2023/03/11 08:31:29;;;;;;;13.27;6.03;;;;;;;6.77;68.47;100522.97;4917814;29;20056;-64
2023/03/11 08:33:59;;;;;;;9.88;4.18;;;;;;;6.91;68.19;100525.81;4902850;29;20044;-65
2023/03/11 08:36:28;;;;;;;11.18;4.20;;;;;;;7.22;67.85;100516.88;4919218;29;20056;-64
2023/03/11 08:38:55;;;;;;;12.23;3.90;;;;;;;7.16;66.84;100509.03;4921224;29;20063;-64
2023/03/11 08:41:23;;;;;;;9.38;4.22;;;;;;;8.59;72.20;100499.72;4902236;29;20044;-39
2023/03/11 08:43:51;;;;;;;11.57;4.00;;;;;;;10.99;56.25;100501.09;4901003;29;20052;-63
2023/03/11 08:46:25;;;;;;;11.88;4.70;;;;;;;9.51;56.32;100509.19;4917130;29;20051;-63
2023/03/11 08:48:53;;;;;;;11.60;4.63;;;;;;;8.87;58.67;100509.56;4919784;29;20048;-63
2023/03/11 08:51:21;;;;;;;15.70;4.40;;;;;;;8.49;60.43;100519.94;4919112;29;20056;-61
2023/03/11 08:53:49;;;;;;;11.10;4.32;;;;;;;8.23;61.18;100529.75;4917927;29;20415;-61
2023/03/11 08:56:17;;;;;;;12.05;4.88;;;;;;;8.11;61.28;100534.09;4903510;29;20057;-63
2023/03/11 08:58:45;;;;;;;11.60;4.60;;;;;;;8.15;62.04;100535.09;4904928;29;20065;-63
2023/03/11 09:01:13;;;;;;;8.02;3.97;;;;;;;7.88;61.90;100542.16;4922203;29;20066;-63
2023/03/11 09:03:40;;;;;;;11.35;3.47;;;;;;;7.81;60.41;100544.47;4919782;29;20067;-63
2023/03/11 09:06:10;;;;;;;9.98;4.03;;;;;;;7.45;60.61;100548.06;4919314;29;20040;-61
2023/03/11 09:08:37;;;;;;;;;;;;;;;7.51;59.89;100544.97;4904170;29;20518;-63
2023/03/11 09:11:05;;;;;;;10.18;4.07;;;;;;;7.76;61.29;100535.50;4917503;29;19927;-63
2023/03/11 09:13:32;;;;;;;12.48;4.00;;;;;;;7.94;60.60;100538.22;4921011;29;20071;-63
2023/03/11 09:15:59;;;;;;;7.32;3.53;;;;;;;8.02;59.64;100535.91;4918061;29;20052;-62
2023/03/11 09:18:28;;;;;;;10.05;4.18;;;;;;;7.74;60.00;100535.00;4920719;29;20511;-63
2023/03/11 09:20:57;;;;;;;12.95;4.90;;;;;;;7.52;60.79;100534.78;4915539;29;20071;-61
2023/03/11 09:23:24;;;;;;;12.75;4.38;;;;;;;7.51;60.94;100534.00;4921010;29;20542;-61
2023/03/11 09:25:51;;;;;;;10.95;4.05;;;;;;;7.38;61.39;100542.13;4918898;29;20051;-63
2023/03/11 09:28:19;;;;;;;12.45;5.18;;;;;;;7.70;61.16;100532.06;4923087;29;20063;-63
2023/03/11 09:30:47;;;;;;;9.45;4.47;;;;;;;7.91;60.51;100525.09;4921124;29;20048;-62
2023/03/11 09:33:14;;;;;;;13.00;4.75;;;;;;;7.86;59.80;100516.16;4898784;29;20055;-62
2023/03/11 09:35:41;;;;;;;16.25;4.75;;;;;;;7.89;59.91;100532.81;4902230;29;20056;-62
2023/03/11 09:38:09;;;;;;;9.48;3.97;;;;;;;7.75;59.36;100531.97;4912189;29;20067;-63
2023/03/11 09:40:59;;;;;;;10.50;4.05;;;;;;;7.34;59.63;100538.38;4917479;29;20432;-62
2023/03/11 09:43:38;;;;;;;7.35;3.17;;;;;;;7.34;59.80;100533.69;4899701;29;20063;-62
2023/03/11 09:46:23;;;;;;;9.70;3.33;;;;;;;7.33;60.71;100540.28;4917613;29;20055;-62
2023/03/11 09:49:16;;;;;;;10.23;3.40;;;;;;;7.48;59.70;100540.06;4911433;29;20071;-63
2023/03/11 09:51:56;;;;;;;10.00;3.05;;;;;;;7.31;59.01;100528.81;4913669;29;20508;-62
2023/03/11 09:54:23;;;;;;;8.20;2.80;;;;;;;7.61;58.65;100525.63;4919044;29;20059;-63
2023/03/11 09:56:51;;;;;;;6.80;2.70;;;;;;;7.53;58.09;100520.00;4912146;29;20052;-60
2023/03/11 09:59:26;;;;;;;13.02;3.33;;;;;;;7.45;58.61;100526.97;4899864;29;20060;-59
2023/03/11 10:01:54;;;;;;;11.63;3.05;;;;;;;7.86;57.74;100532.63;4909418;29;20055;-58
2023/03/11 10:04:33;;;;;;;7.88;2.60;;;;;;;7.57;58.10;100546.50;4897375;29;20062;-65
2023/03/11 10:07:05;;;;;;;7.80;3.20;;;;;;;7.53;57.77;100539.97;4916298;29;20055;-63
2023/03/11 10:09:58;;;;;;;6.38;2.90;;;;;;;7.65;57.49;100555.97;4899874;29;20052;-61
2023/03/11 10:12:45;;;;;;;7.47;2.95;;;;;;;7.62;57.80;100545.59;4916949;29;20063;-63
2023/03/11 10:15:22;;;;;;;7.03;3.03;;;;;;;7.52;58.40;100553.97;4917621;29;20056;-62
2023/03/11 10:18:01;;;;;;;7.38;3.30;;;;;;;7.58;58.68;100558.28;4917659;29;20056;-63
2023/03/11 10:20:53;;;;;;;12.38;3.53;;;;;;;7.53;58.59;100559.16;4916816;29;20134;-62
2023/03/11 10:23:23;;;;;;;12.82;3.80;;;;;;;7.74;58.54;100555.00;4916282;29;20527;-63
2023/03/11 10:25:54;;;;;;;9.60;3.00;;;;;;;7.79;58.04;100549.44;4898781;29;20056;-63
2023/03/11 10:28:27;;;;;;;8.90;3.08;;;;;;;7.87;59.65;100551.50;4899278;29;20488;-65
2023/03/11 10:30:57;;;;;;;11.85;2.75;;;;;;;8.11;58.71;100545.09;4885881;29;20060;-64
2023/03/11 10:33:36;;;;;;;10.38;3.10;;;;;;;8.26;58.64;100550.31;4913725;29;20104;-64
2023/03/11 10:36:07;;;;;;;9.23;2.70;;;;;;;8.55;57.97;100559.09;4917789;29;20056;-64
2023/03/11 10:38:41;;;;;;;8.07;2.53;;;;;;;8.53;56.76;100553.91;4902125;29;20052;-65
2023/03/11 10:41:42;;;;;;;8.15;3.10;;;;;;;8.50;56.44;100553.69;4895600;29;20056;-64
2023/03/11 10:44:33;;;;;;;8.43;2.95;;;;;;;8.60;56.84;100561.72;4916831;29;20067;-64
2023/03/11 10:47:01;;;;;;;10.55;2.92;;;;;;;8.74;57.64;100554.31;4893403;29;20056;-65
2023/03/11 10:49:28;;;;;;;7.05;2.50;;;;;;;8.63;55.23;100559.19;4915152;29;20063;-63
2023/03/11 10:51:56;;;;;;;13.45;3.10;;;;;;;8.47;55.39;100557.06;4898520;29;20056;-62
2023/03/11 10:54:33;;;;;;;6.28;2.65;;;;;;;8.30;55.96;100554.88;4900942;29;20404;-63
2023/03/11 10:57:03;;;;;;;11.10;3.03;;;;;;;8.38;56.07;100551.47;4917068;29;20052;-64
2023/03/11 10:59:34;;;;;;;14.80;6.88;;;;;;;8.55;55.45;100553.59;4915619;29;20044;-62
2023/03/11 11:02:22;;;;;;;7.30;3.25;;;;;;;8.45;55.29;100545.56;4899332;29;20040;-63
2023/03/11 11:05:03;;;;;;;7.22;2.58;;;;;;;8.50;54.86;100546.28;4916765;29;20063;-63
2023/03/11 11:07:36;;;;;;;8.90;2.60;;;;;;;8.25;54.39;100540.44;4917061;29;20055;-62
2023/03/11 11:10:20;;;;;;;7.85;3.17;;;;;;;8.37;55.54;100549.03;4902617;29;20060;-62
2023/03/11 11:13:07;;;;;;;7.80;3.13;;;;;;;8.59;55.38;100541.72;4918576;29;20055;-63
2023/03/11 11:15:36;;;;;;;9.80;2.65;;;;;;;8.79;54.35;100537.72;4918540;29;20061;-63
2023/03/11 11:18:22;;;;;;;10.13;2.80;;;;;;;8.87;53.94;100537.81;4917780;29;20709;-63
2023/03/11 11:21:00;;;;;;;6.80;2.88;;;;;;;8.87;53.53;100534.28;4919669;29;20056;-63
2023/03/11 11:23:50;;;;;;;7.10;2.53;;;;;;;9.05;52.30;100534.16;4903167;29;20060;-64
2023/03/11 11:26:22;;;;;;;13.00;2.70;;;;;;;8.83;53.01;100539.59;4901655;29;20068;-63
2023/03/11 11:29:08;;;;;;;9.27;2.72;;;;;;;8.69;53.11;100532.47;4902793;29;20508;-63
2023/03/11 11:31:41;;;;;;;12.48;2.88;;;;;;;8.87;53.34;100537.03;4917722;29;20520;-65
2023/03/11 11:34:29;;;;;;;14.65;7.88;;;;;;;8.83;53.03;100528.59;4914875;29;20059;-65
2023/03/11 11:36:58;;;;;;;7.43;2.67;;;;;;;8.65;52.68;100529.50;4916408;29;20060;-65
2023/03/11 11:39:30;;;;;;;5.80;2.45;;;;;;;8.47;52.95;100530.41;4902752;29;20044;-63
2023/03/11 11:41:58;;;;;;;8.85;2.80;;;;;;;8.55;53.60;100531.63;4903403;29;20411;-64
2023/03/11 11:44:32;;;;;;;7.85;2.95;;;;;;;8.81;53.71;100528.09;4917185;29;20527;-63